Time;durP1;ratioP1;P1;durP2;ratioP2;P2;SDS_P1;SDS_P2;PMS_P1;PMS_P2;Temp;Humidity;BMP_temperature;BMP_pressure;BME280_temperature;BME280_humidity;BME280_pressure;Samples;Min_cycle;Max_cycle;Signal;HPM_P1;HPM_P2
2021/12/10 00:01:41;;;;;;;9.53;3.93;;;5.00;99.90;;;;;;5028276;28;20356;-68
2021/12/10 00:04:09;;;;;;;10.30;4.00;;;4.90;99.90;;;;;;5028861;28;20436;-67
2021/12/10 00:06:45;;;;;;;9.83;4.40;;;4.80;99.90;;;;;;5046780;28;20428;-68
2021/12/10 00:09:24;;;;;;;10.07;4.40;;;4.80;99.90;;;;;;5046571;28;20489;-66
2021/12/10 00:11:54;;;;;;;8.10;3.73;;;4.80;99.90;;;;;;5051156;28;20632;-68
2021/12/10 00:14:26;;;;;;;10.33;3.97;;;4.60;99.90;;;;;;5062694;28;20422;-70
2021/12/10 00:16:53;;;;;;;9.53;3.53;;;4.50;99.90;;;;;;5044538;28;20511;-68
2021/12/10 00:19:27;;;;;;;8.40;3.50;;;4.40;99.90;;;;;;5028446;28;20906;-70
2021/12/10 00:21:55;;;;;;;14.40;4.50;;;4.30;99.90;;;;;;5027129;28;20778;-70
2021/12/10 00:24:25;;;;;;;8.27;4.97;;;4.20;99.90;;;;;;5046812;28;20439;-67
2021/12/10 00:26:51;;;;;;;12.30;5.33;;;4.20;99.90;;;;;;5046930;28;20416;-68
2021/12/10 00:29:18;;;;;;;8.00;4.20;;;4.00;99.90;;;;;;5045166;28;20443;-67
2021/12/10 00:31:51;;;;;;;7.30;3.80;;;4.00;99.90;;;;;;5040785;28;20930;-69
2021/12/10 00:34:31;;;;;;;16.07;4.90;;;4.30;99.90;;;;;;5045265;28;20412;-66
2021/12/10 00:37:00;;;;;;;6.00;3.57;;;3.90;99.90;;;;;;5047143;28;20400;-72
2021/12/10 00:39:40;;;;;;;14.70;3.60;;;3.80;99.90;;;;;;5029030;28;20449;-67
2021/12/10 00:42:13;;;;;;;10.23;4.10;;;3.80;99.90;;;;;;5054221;28;20492;-66
2021/12/10 00:44:39;;;;;;;9.40;4.50;;;3.70;99.90;;;;;;5046850;28;20418;-70
2021/12/10 00:47:05;;;;;;;9.13;4.73;;;3.70;99.90;;;;;;5026135;28;20771;-70
2021/12/10 00:49:31;;;;;;;10.87;4.30;;;3.60;99.90;;;;;;5027731;28;20198;-70
2021/12/10 00:51:57;;;;;;;9.70;3.83;;;3.50;99.90;;;;;;5040946;28;20463;-72
2021/12/10 00:54:23;;;;;;;9.47;3.73;;;3.50;99.90;;;;;;5031711;28;20284;-67
2021/12/10 00:56:48;;;;;;;10.00;4.40;;;3.40;99.90;;;;;;5048796;28;20531;-70
2021/12/10 00:59:17;;;;;;;16.53;4.17;;;3.30;99.90;;;;;;5050374;28;20679;-66
2021/12/10 01:01:44;;;;;;;11.40;3.77;;;3.30;99.90;;;;;;5033118;28;20182;-68
2021/12/10 01:04:14;;;;;;;6.97;3.50;;;3.30;99.90;;;;;;5049480;28;20415;-72
2021/12/10 01:06:42;;;;;;;11.17;4.37;;;3.20;99.90;;;;;;5032590;28;20522;-72
2021/12/10 01:09:12;;;;;;;16.17;7.60;;;3.10;99.90;;;;;;5030710;28;20424;-69
2021/12/10 01:11:42;;;;;;;24.13;13.03;;;3.20;99.90;;;;;;5051171;28;20463;-66
2021/12/10 01:14:21;;;;;;;11.80;6.00;;;3.20;99.90;;;;;;5055833;28;20403;-67
2021/12/10 01:25:13;;;;;;;11.30;4.00;;;2.90;99.90;;;;;;5056301;28;20487;-67
2021/12/10 01:27:42;;;;;;;7.33;3.60;;;2.90;99.90;;;;;;5070124;28;20412;-67
2021/12/10 01:30:10;;;;;;;7.27;3.77;;;2.90;99.90;;;;;;5055430;28;20461;-67
2021/12/10 01:32:39;;;;;;;6.97;3.27;;;2.90;99.90;;;;;;5041991;28;20460;-69
2021/12/10 01:35:07;;;;;;;9.93;3.70;;;2.80;99.90;;;;;;5025288;28;20443;-68
2021/12/10 01:37:33;;;;;;;7.57;3.67;;;2.80;99.90;;;;;;5044384;28;20403;-67
2021/12/10 01:39:59;;;;;;;7.83;3.30;;;2.80;99.90;;;;;;5048393;28;20775;-67
2021/12/10 01:44:56;;;;;;;12.63;3.93;;;2.70;99.90;;;;;;5056766;28;20234;-66
2021/12/10 01:47:29;;;;;;;10.17;3.63;;;3.10;99.90;;;;;;5030260;28;20774;-66
2021/12/10 01:49:54;;;;;;;9.80;3.30;;;2.70;99.90;;;;;;5038325;28;21185;-69
2021/12/10 01:52:21;;;;;;;10.70;3.70;;;2.70;99.90;;;;;;5048030;28;20505;-68
2021/12/10 01:54:52;;;;;;;6.60;4.03;;;2.70;99.90;;;;;;5038282;28;20280;-69
2021/12/10 01:57:20;;;;;;;8.03;3.47;;;2.60;99.90;;;;;;5050253;28;20410;-68
2021/12/10 01:59:46;;;;;;;6.73;3.80;;;2.60;99.90;;;;;;5049028;28;20431;-69
2021/12/10 02:02:17;;;;;;;8.70;4.10;;;2.60;99.90;;;;;;5050103;28;20451;-66
2021/12/10 02:04:44;;;;;;;13.50;4.00;;;3.00;99.90;;;;;;5038327;28;20413;-66
2021/12/10 02:07:13;;;;;;;7.63;3.53;;;2.50;99.90;;;;;;5028554;28;20707;-67
2021/12/10 02:09:39;;;;;;;11.00;3.27;;;2.50;99.90;;;;;;5035885;28;20937;-67
2021/12/10 02:12:06;;;;;;;6.30;3.20;;;2.80;99.90;;;;;;5057802;28;20459;-68
2021/12/10 02:14:32;;;;;;;11.60;2.77;;;2.50;99.90;;;;;;5040153;28;20600;-68
2021/12/10 02:16:59;;;;;;;6.30;2.73;;;2.50;99.90;;;;;;5040057;28;20409;-67
2021/12/10 02:19:26;;;;;;;5.20;2.90;;;2.50;99.90;;;;;;5030842;28;20925;-68
2021/12/10 02:21:51;;;;;;;11.33;2.60;;;4.80;99.90;;;;;;5031171;28;20419;-68
2021/12/10 02:24:18;;;;;;;7.80;3.10;;;2.70;99.90;;;;;;5049572;28;20944;-67
2021/12/10 02:26:50;;;;;;;5.00;2.83;;;2.90;99.90;;;;;;5040589;28;20173;-70
2021/12/10 02:29:19;;;;;;;6.90;2.63;;;2.50;99.90;;;;;;5034848;28;20539;-66
2021/12/10 02:31:45;;;;;;;9.17;3.00;;;2.50;99.90;;;;;;5034715;28;21350;-70
2021/12/10 02:34:11;;;;;;;9.07;2.90;;;2.90;99.90;;;;;;5049259;28;20408;-67
2021/12/10 02:36:42;;;;;;;3.77;2.70;;;2.60;99.90;;;;;;5041327;28;20174;-71
2021/12/10 02:39:12;;;;;;;11.20;2.90;;;2.60;99.90;;;;;;5027071;28;20209;-68
2021/12/10 02:41:39;;;;;;;8.40;3.10;;;2.50;99.90;;;;;;5053174;28;20535;-68
2021/12/10 02:44:08;;;;;;;6.40;3.37;;;2.50;99.90;;;;;;5057772;28;20426;-69
2021/12/10 02:46:34;;;;;;;8.77;3.30;;;2.80;99.90;;;;;;5046134;28;20420;-68
2021/12/10 02:49:00;;;;;;;6.33;2.77;;;2.50;99.90;;;;;;5049462;28;20431;-66
2021/12/10 02:51:26;;;;;;;9.20;2.70;;;2.50;99.90;;;;;;5043550;28;20205;-70
2021/12/10 02:53:52;;;;;;;7.50;3.10;;;2.40;99.90;;;;;;5049474;28;20523;-68
2021/12/10 02:56:21;;;;;;;7.70;2.70;;;2.50;99.90;;;;;;5044770;28;20535;-66
2021/12/10 02:58:49;;;;;;;8.17;3.00;;;2.50;99.90;;;;;;5049101;28;20185;-66
2021/12/10 03:01:41;;;;;;;5.70;2.90;;;2.50;99.90;;;;;;5047766;28;20440;-68
2021/12/10 03:04:08;;;;;;;8.83;2.90;;;2.50;99.90;;;;;;5047474;28;20550;-67
2021/12/10 03:06:37;;;;;;;9.13;3.40;;;2.60;99.90;;;;;;5029504;28;20914;-69
2021/12/10 03:09:04;;;;;;;6.50;3.07;;;2.50;99.90;;;;;;5035303;28;20444;-66
2021/12/10 03:11:33;;;;;;;6.30;2.97;;;2.60;99.90;;;;;;5047915;28;20458;-67
2021/12/10 03:14:05;;;;;;;3.30;2.70;;;2.60;99.90;;;;;;5049494;28;20565;-67
2021/12/10 03:16:32;;;;;;;4.87;3.00;;;2.60;99.90;;;;;;5047093;28;20423;-66
2021/12/10 03:18:58;;;;;;;5.70;3.10;;;2.50;99.90;;;;;;5039267;28;21039;-68
2021/12/10 03:21:23;;;;;;;3.10;2.50;;;2.50;99.90;;;;;;5045820;28;20447;-66
2021/12/10 03:23:49;;;;;;;9.93;3.97;;;2.50;99.90;;;;;;5046965;28;20185;-69
2021/12/10 03:26:18;;;;;;;7.97;2.87;;;2.60;99.90;;;;;;5040024;28;20270;-68
2021/12/10 03:28:44;;;;;;;9.33;3.90;;;2.60;99.90;;;;;;5040453;28;20213;-66
2021/12/10 03:31:11;;;;;;;8.80;3.40;;;2.60;99.90;;;;;;5033668;28;20498;-66
2021/12/10 03:33:41;;;;;;;3.47;2.43;;;2.60;99.90;;;;;;5028947;28;20412;-69
2021/12/10 03:36:09;;;;;;;4.20;2.80;;;2.60;99.90;;;;;;5042774;28;20917;-67
2021/12/10 03:38:37;;;;;;;5.70;2.50;;;2.60;99.90;;;;;;5046978;28;20436;-66
2021/12/10 03:41:03;;;;;;;5.90;3.20;;;3.00;99.90;;;;;;5046302;28;20427;-67
2021/12/10 03:43:30;;;;;;;9.13;2.90;;;2.60;99.90;;;;;;5060207;28;20430;-67
2021/12/10 03:45:58;;;;;;;9.50;3.33;;;2.60;99.90;;;;;;5053437;28;20782;-67
2021/12/10 03:48:27;;;;;;;5.97;2.90;;;2.60;99.90;;;;;;5048226;28;21175;-67
2021/12/10 03:50:54;;;;;;;4.67;3.07;;;3.10;99.90;;;;;;5037848;28;20950;-66
2021/12/10 03:53:20;;;;;;;4.40;2.97;;;2.60;99.90;;;;;;5029356;28;20427;-67
2021/12/10 03:55:47;;;;;;;7.13;2.87;;;2.60;99.90;;;;;;5035841;28;20415;-66
2021/12/10 03:58:14;;;;;;;6.90;3.20;;;2.60;99.90;;;;;;5028252;28;20205;-67
2021/12/10 04:00:47;;;;;;;5.63;2.80;;;2.60;99.90;;;;;;5036330;28;20434;-66
2021/12/10 04:03:15;;;;;;;7.37;3.17;;;2.60;99.90;;;;;;5041671;28;20424;-68
2021/12/10 04:05:41;;;;;;;6.90;3.17;;;2.60;99.90;;;;;;5046695;28;20427;-69
2021/12/10 04:08:07;;;;;;;5.70;2.90;;;2.50;99.90;;;;;;5044361;28;20453;-68
2021/12/10 04:10:33;;;;;;;6.30;2.80;;;2.50;99.90;;;;;;5033163;28;20425;-68
2021/12/10 04:12:59;;;;;;;8.00;2.97;;;2.90;99.90;;;;;;5050563;28;20255;-66
2021/12/10 04:15:25;;;;;;;9.37;2.90;;;2.50;99.90;;;;;;5037211;28;20491;-68
2021/12/10 04:17:53;;;;;;;8.23;3.30;;;2.50;99.90;;;;;;5034587;28;20573;-67
2021/12/10 04:20:20;;;;;;;13.30;3.77;;;2.40;99.90;;;;;;5028615;28;20447;-67
2021/12/10 04:22:47;;;;;;;6.60;2.90;;;2.40;99.90;;;;;;5033374;28;20800;-66
2021/12/10 04:25:16;;;;;;;8.60;2.93;;;2.40;99.90;;;;;;5045804;28;20427;-68
2021/12/10 04:27:44;;;;;;;8.00;2.90;;;2.30;99.90;;;;;;5037851;28;20447;-68
2021/12/10 04:30:12;;;;;;;10.73;3.07;;;2.30;99.90;;;;;;5045171;28;20727;-68
2021/12/10 04:32:39;;;;;;;3.53;2.70;;;2.30;99.90;;;;;;5048174;28;20459;-66
2021/12/10 04:35:06;;;;;;;5.53;2.53;;;2.20;99.90;;;;;;5047071;28;20895;-67
2021/12/10 04:37:32;;;;;;;6.37;2.97;;;2.20;99.90;;;;;;5031810;28;21268;-67
2021/12/10 04:40:01;;;;;;;6.50;3.20;;;2.20;99.90;;;;;;5028954;28;20486;-66
2021/12/10 04:42:27;;;;;;;7.00;2.90;;;2.20;99.90;;;;;;5048865;28;20181;-67
2021/12/10 04:44:56;;;;;;;6.43;2.90;;;2.10;99.90;;;;;;5066885;28;20407;-68
2021/12/10 04:47:22;;;;;;;7.37;3.40;;;2.50;99.90;;;;;;5042953;28;20178;-66
2021/12/10 04:49:48;;;;;;;7.50;3.37;;;2.10;99.90;;;;;;5027874;28;20439;-65
2021/12/10 04:52:14;;;;;;;10.17;3.03;;;2.00;99.90;;;;;;5033486;28;20550;-66
2021/12/10 04:54:40;;;;;;;8.30;2.40;;;2.10;99.90;;;;;;5044137;28;20420;-67
2021/12/10 04:57:06;;;;;;;7.93;2.60;;;2.10;99.90;;;;;;5029818;28;20273;-66
2021/12/10 04:59:34;;;;;;;4.83;2.70;;;2.10;99.90;;;;;;5046728;28;20288;-68
2021/12/10 05:02:02;;;;;;;5.30;2.83;;;2.10;99.90;;;;;;5046680;28;20422;-68
2021/12/10 05:04:29;;;;;;;3.80;2.50;;;2.30;99.90;;;;;;5045465;28;20770;-67
2021/12/10 05:06:55;;;;;;;7.60;2.83;;;2.10;99.90;;;;;;5040681;28;20848;-67
2021/12/10 05:09:22;;;;;;;18.20;3.43;;;2.10;99.90;;;;;;5026560;28;20536;-68
2021/12/10 05:11:48;;;;;;;6.60;2.37;;;2.10;99.90;;;;;;5048986;28;20482;-67
2021/12/10 05:14:15;;;;;;;4.83;2.90;;;2.10;99.90;;;;;;5063819;28;20415;-67
2021/12/10 05:16:44;;;;;;;4.93;2.77;;;2.10;99.90;;;;;;5036920;28;20926;-66
2021/12/10 05:19:13;;;;;;;5.53;2.70;;;2.00;99.90;;;;;;5027640;28;20444;-66
2021/12/10 05:21:39;;;;;;;6.87;3.60;;;2.00;99.90;;;;;;5033558;28;20436;-68
2021/12/10 05:24:07;;;;;;;4.27;2.73;;;2.50;99.90;;;;;;5045474;28;20515;-68
2021/12/10 05:26:34;;;;;;;8.97;2.63;;;2.10;99.90;;;;;;5042858;28;20523;-66
2021/12/10 05:29:00;;;;;;;7.50;3.00;;;2.00;99.90;;;;;;5033671;28;20467;-69
2021/12/10 05:31:26;;;;;;;4.00;2.67;;;2.00;99.90;;;;;;5042206;28;20506;-69
2021/12/10 05:33:52;;;;;;;7.67;2.93;;;2.00;99.90;;;;;;5043859;28;20185;-68
2021/12/10 05:36:17;;;;;;;5.77;3.10;;;2.40;99.90;;;;;;5045850;28;20455;-66
2021/12/10 05:38:43;;;;;;;7.63;3.27;;;2.00;99.90;;;;;;5029219;28;20683;-66
2021/12/10 05:41:10;;;;;;;4.43;3.37;;;2.00;99.90;;;;;;5047025;28;20260;-66
2021/12/10 05:43:38;;;;;;;6.70;3.20;;;2.00;99.90;;;;;;5050808;28;20272;-67
2021/12/10 05:46:04;;;;;;;6.17;3.43;;;2.10;99.90;;;;;;5030720;28;20412;-67
2021/12/10 05:48:31;;;;;;;7.20;2.80;;;2.10;99.90;;;;;;5044902;28;20512;-66
2021/12/10 05:50:57;;;;;;;5.47;3.23;;;2.10;99.90;;;;;;5049154;28;20478;-67
2021/12/10 05:53:23;;;;;;;17.00;3.37;;;2.10;99.90;;;;;;5047110;28;20428;-69
2021/12/10 05:55:49;;;;;;;5.50;3.57;;;2.10;99.90;;;;;;5046263;28;20424;-66
2021/12/10 05:58:15;;;;;;;5.53;3.20;;;2.10;99.90;;;;;;5049355;28;20192;-66
2021/12/10 06:00:54;;;;;;;5.33;3.20;;;2.30;99.90;;;;;;5034381;28;20260;-66
2021/12/10 06:03:22;;;;;;;6.50;3.33;;;2.10;99.90;;;;;;5042972;28;20494;-67
2021/12/10 06:05:48;;;;;;;4.90;2.93;;;2.10;99.90;;;;;;5039705;28;20436;-68
2021/12/10 06:08:15;;;;;;;6.37;2.93;;;2.20;99.90;;;;;;5030966;28;20483;-66
2021/12/10 06:10:43;;;;;;;8.73;2.97;;;2.10;99.90;;;;;;5037598;28;20530;-66
2021/12/10 06:13:10;;;;;;;8.77;3.40;;;2.10;99.90;;;;;;5059744;28;20552;-67
2021/12/10 06:15:36;;;;;;;8.17;3.50;;;2.10;99.90;;;;;;5049589;28;20416;-67
2021/12/10 06:18:03;;;;;;;5.27;3.30;;;2.50;99.90;;;;;;5035052;28;21020;-67
2021/12/10 06:20:31;;;;;;;7.73;3.30;;;2.10;99.90;;;;;;5030523;28;20482;-68
2021/12/10 06:22:59;;;;;;;8.57;3.50;;;2.10;99.90;;;;;;5030028;28;20937;-67
2021/12/10 06:25:26;;;;;;;4.10;3.00;;;2.10;99.90;;;;;;5033458;28;21015;-69
2021/12/10 06:27:52;;;;;;;7.17;3.00;;;2.10;99.90;;;;;;5049137;28;20426;-66
2021/12/10 06:30:22;;;;;;;9.93;3.50;;;2.10;99.90;;;;;;5030139;28;20440;-68
2021/12/10 06:32:51;;;;;;;5.73;3.23;;;2.50;99.90;;;;;;5046464;28;20205;-65
2021/12/10 06:35:18;;;;;;;5.40;2.97;;;2.10;99.90;;;;;;5047515;28;20439;-66
2021/12/10 06:37:44;;;;;;;4.33;2.70;;;2.00;99.90;;;;;;5049487;28;20407;-68
2021/12/10 06:40:13;;;;;;;6.73;2.73;;;2.10;99.90;;;;;;5040271;28;20514;-67
2021/12/10 06:42:39;;;;;;;6.33;3.00;;;2.00;99.90;;;;;;5060136;28;20441;-68
2021/12/10 06:45:08;;;;;;;7.23;3.17;;;2.00;99.90;;;;;;5046639;28;20424;-67
2021/12/10 06:47:34;;;;;;;4.87;2.60;;;2.00;99.90;;;;;;5049530;28;20469;-67
2021/12/10 06:49:59;;;;;;;4.23;2.80;;;2.00;99.90;;;;;;5033035;28;20448;-66
2021/12/10 06:52:25;;;;;;;9.30;2.90;;;2.30;99.90;;;;;;5036729;28;20463;-67
2021/12/10 06:54:51;;;;;;;4.73;3.20;;;2.00;99.90;;;;;;5047407;28;20169;-68
2021/12/10 06:57:16;;;;;;;4.90;2.90;;;2.30;99.90;;;;;;5042383;28;20571;-67
2021/12/10 06:59:42;;;;;;;4.67;3.00;;;1.80;99.90;;;;;;5045607;28;20190;-66
2021/12/10 07:02:08;;;;;;;5.00;3.13;;;1.80;99.90;;;;;;5048396;28;20212;-67
2021/12/10 07:04:35;;;;;;;7.83;3.40;;;1.90;99.90;;;;;;5045905;28;22026;-70
2021/12/10 07:07:02;;;;;;;12.87;4.67;;;1.90;99.90;;;;;;5047136;28;20177;-67
2021/12/10 07:09:28;;;;;;;4.00;3.27;;;1.90;99.90;;;;;;5047952;28;20589;-67
2021/12/10 07:11:55;;;;;;;8.40;3.63;;;1.90;99.90;;;;;;5049817;28;20477;-68
2021/12/10 07:14:21;;;;;;;7.57;3.80;;;1.90;99.90;;;;;;5048366;28;20192;-67
2021/12/10 07:16:48;;;;;;;5.77;3.60;;;1.90;99.90;;;;;;5036148;28;20518;-68
2021/12/10 07:19:14;;;;;;;9.97;3.57;;;1.80;99.90;;;;;;5041871;28;20201;-67
2021/12/10 07:21:40;;;;;;;5.97;3.67;;;1.80;99.90;;;;;;5047601;28;20725;-68
2021/12/10 07:24:09;;;;;;;7.90;3.93;;;1.90;99.90;;;;;;5039266;28;20573;-69
2021/12/10 07:26:35;;;;;;;6.80;3.67;;;1.80;99.90;;;;;;5040345;28;20515;-68
2021/12/10 07:29:01;;;;;;;5.27;3.53;;;1.90;99.90;;;;;;5047474;28;20443;-68
2021/12/10 07:31:27;;;;;;;6.60;3.90;;;1.90;99.90;;;;;;5041924;28;20193;-70
2021/12/10 07:33:54;;;;;;;7.90;4.10;;;2.00;99.90;;;;;;5048998;28;20484;-68
2021/12/10 07:36:21;;;;;;;8.00;3.80;;;2.00;99.90;;;;;;5047791;28;20454;-66
2021/12/10 07:38:46;;;;;;;8.47;4.07;;;2.10;99.90;;;;;;5037885;28;20443;-67
2021/12/10 07:41:12;;;;;;;7.70;3.70;;;2.10;99.90;;;;;;5041747;28;20803;-67
2021/12/10 07:43:39;;;;;;;7.70;3.80;;;2.10;99.90;;;;;;5035368;28;20177;-69
2021/12/10 07:46:05;;;;;;;7.83;3.73;;;2.20;99.90;;;;;;5028478;28;20197;-67
2021/12/10 07:48:34;;;;;;;7.70;3.90;;;2.30;99.90;;;;;;5036398;28;20526;-67
2021/12/10 07:51:05;;;;;;;5.80;3.50;;;2.80;99.90;;;;;;5046504;28;20945;-66
2021/12/10 07:53:32;;;;;;;6.80;3.67;;;2.70;99.90;;;;;;5044301;28;20452;-69
2021/12/10 07:56:01;;;;;;;6.10;3.50;;;2.30;99.90;;;;;;5048304;28;20399;-67
2021/12/10 07:58:27;;;;;;;6.63;3.70;;;2.40;99.90;;;;;;5045454;28;20805;-69
2021/12/10 08:00:54;;;;;;;7.47;4.00;;;2.40;99.90;;;;;;5027440;28;20413;-67
2021/12/10 08:03:20;;;;;;;10.80;4.10;;;2.40;99.90;;;;;;5029189;28;20428;-67
2021/12/10 15:57:06;;;;;;;10.40;6.23;;;2.30;99.90;;;;;;5117426;27;20557;-66
2021/12/10 15:59:39;;;;;;;8.77;6.00;;;2.60;99.90;;;;;;5087583;27;20538;-68
2021/12/10 16:02:08;;;;;;;10.07;6.30;;;2.60;99.90;;;;;;5085800;28;20533;-65
2021/12/10 16:04:37;;;;;;;14.80;8.30;;;2.70;99.90;;;;;;5084348;28;20462;-67
2021/12/10 16:07:12;;;;;;;11.60;7.13;;;3.00;99.90;;;;;;5085278;28;20471;-67
2021/12/10 16:09:38;;;;;;;13.07;8.50;;;3.00;99.90;;;;;;5084064;28;20441;-70
2021/12/10 16:12:05;;;;;;;10.97;7.33;;;3.00;99.90;;;;;;5091158;28;20424;-65
2021/12/10 16:14:33;;;;;;;12.33;7.23;;;3.10;99.90;;;;;;5087769;28;20437;-67
2021/12/10 16:17:00;;;;;;;11.77;7.90;;;3.20;99.90;;;;;;5084754;28;20467;-68
2021/12/10 16:19:29;;;;;;;18.17;8.03;;;3.20;99.90;;;;;;5085790;28;20475;-65
2021/12/10 16:22:10;;;;;;;9.60;6.30;;;3.30;99.90;;;;;;5084677;28;20903;-66
2021/12/10 16:24:39;;;;;;;11.77;7.70;;;3.30;99.90;;;;;;5085513;28;20405;-66
2021/12/10 16:27:16;;;;;;;12.93;8.83;;;3.30;99.90;;;;;;5083473;28;20418;-66
2021/12/10 16:29:53;;;;;;;12.17;7.77;;;3.30;99.90;;;;;;5084826;28;20437;-67
2021/12/10 16:32:23;;;;;;;14.10;6.80;;;3.30;99.90;;;;;;5085565;28;20417;-65
2021/12/10 16:34:58;;;;;;;8.60;6.83;;;3.40;99.90;;;;;;5084558;28;20449;-65
2021/12/10 16:37:24;;;;;;;12.70;7.53;;;3.40;99.90;;;;;;5083942;28;20474;-66
2021/12/10 16:39:52;;;;;;;13.90;9.27;;;3.40;99.90;;;;;;5084738;28;20438;-66
2021/12/10 16:42:18;;;;;;;11.63;8.40;;;3.50;99.90;;;;;;5096277;28;20888;-66
2021/12/10 16:44:45;;;;;;;11.40;7.03;;;3.50;99.90;;;;;;5085549;28;20406;-67
2021/12/10 16:47:18;;;;;;;12.97;7.57;;;3.50;99.90;;;;;;5084876;28;20191;-68
2021/12/10 16:49:45;;;;;;;11.03;7.23;;;3.60;99.90;;;;;;5075722;28;21092;-67
2021/12/10 16:52:16;;;;;;;9.90;6.70;;;3.70;99.90;;;;;;5083578;28;20425;-68
2021/12/10 16:54:42;;;;;;;10.63;7.17;;;3.70;99.90;;;;;;5083724;28;20893;-69
2021/12/10 16:57:18;;;;;;;9.87;7.67;;;4.20;99.90;;;;;;5084165;28;20946;-66
2021/12/10 16:59:45;;;;;;;9.60;7.50;;;3.70;99.90;;;;;;5084304;28;20430;-66
2021/12/10 17:02:19;;;;;;;13.37;7.80;;;4.30;99.90;;;;;;5077788;28;20414;-67
2021/12/10 17:04:51;;;;;;;11.27;8.33;;;3.80;99.90;;;;;;5082564;28;20430;-67
2021/12/10 17:07:22;;;;;;;10.03;7.57;;;4.00;99.90;;;;;;5074066;28;20803;-67
2021/12/10 17:09:52;;;;;;;11.67;8.50;;;3.90;99.90;;;;;;5085644;28;20438;-66
2021/12/10 17:12:22;;;;;;;10.40;7.53;;;4.30;99.90;;;;;;5078914;28;20445;-68
2021/12/10 17:14:52;;;;;;;13.40;7.90;;;4.00;99.90;;;;;;5085661;28;20465;-66
2021/12/10 17:17:25;;;;;;;10.00;7.10;;;4.10;99.90;;;;;;5071054;28;20423;-66
2021/12/10 17:20:02;;;;;;;10.80;7.50;;;4.10;99.90;;;;;;5070531;28;20441;-66
2021/12/10 17:22:32;;;;;;;13.00;7.43;;;4.40;99.90;;;;;;5069029;28;20414;-66
2021/12/10 17:25:03;;;;;;;13.83;8.23;;;4.10;99.90;;;;;;5071014;28;20494;-66
2021/12/10 17:27:31;;;;;;;10.60;7.40;;;4.10;99.90;;;;;;5070727;28;20829;-68
2021/12/10 17:30:04;;;;;;;13.20;8.70;;;4.40;99.90;;;;;;5068635;28;20457;-66
2021/12/10 17:32:31;;;;;;;10.80;6.73;;;4.10;99.90;;;;;;5070934;28;20414;-68
2021/12/10 17:35:07;;;;;;;11.23;8.00;;;4.20;99.90;;;;;;5068248;28;20457;-67
2021/12/10 17:37:34;;;;;;;10.83;7.03;;;4.10;99.90;;;;;;5069654;28;20923;-66
2021/12/10 17:40:21;;;;;;;10.30;7.73;;;4.20;99.90;;;;;;5069602;28;20533;-68
2021/12/10 17:42:51;;;;;;;11.70;7.20;;;4.20;99.90;;;;;;5082270;28;20467;-66
2021/12/10 17:45:21;;;;;;;9.50;7.03;;;4.20;99.90;;;;;;5070553;28;20510;-67
2021/12/10 17:47:50;;;;;;;9.97;7.40;;;4.60;99.90;;;;;;5070161;28;20852;-66
2021/12/10 17:50:23;;;;;;;9.13;6.70;;;4.30;99.90;;;;;;5067998;28;20430;-66
2021/12/10 17:52:53;;;;;;;10.90;7.47;;;4.40;99.90;;;;;;5070084;28;20450;-67
2021/12/10 17:55:23;;;;;;;8.93;6.80;;;4.40;99.90;;;;;;5069560;28;20478;-67
2021/12/10 17:57:52;;;;;;;8.60;6.53;;;4.60;99.90;;;;;;5085631;28;20415;-68
2021/12/10 18:00:27;;;;;;;13.37;7.07;;;4.40;99.90;;;;;;5069548;28;20434;-66
2021/12/10 18:03:02;;;;;;;9.70;6.27;;;4.40;99.90;;;;;;5067528;28;20554;-67
2021/12/10 18:05:29;;;;;;;12.63;7.63;;;4.40;99.90;;;;;;5068410;28;20963;-66
2021/12/10 18:07:55;;;;;;;22.47;10.50;;;4.40;99.90;;;;;;5069259;28;20426;-67
2021/12/10 18:10:26;;;;;;;13.37;7.80;;;4.50;99.90;;;;;;5066194;28;20457;-66
2021/12/10 18:12:58;;;;;;;13.87;7.40;;;4.50;99.90;;;;;;5086618;28;20725;-68
2021/12/10 18:15:33;;;;;;;9.83;6.40;;;4.60;99.90;;;;;;5068871;28;20453;-66
2021/12/10 18:18:13;;;;;;;9.90;6.93;;;4.60;99.90;;;;;;5068512;28;20943;-68
2021/12/10 18:20:46;;;;;;;10.93;7.67;;;4.60;99.90;;;;;;5083061;28;20473;-66
2021/12/10 18:23:16;;;;;;;9.30;5.70;;;4.60;99.90;;;;;;5069428;28;20415;-68
2021/12/10 18:25:49;;;;;;;6.70;5.47;;;4.50;99.90;;;;;;5062690;28;20419;-66
2021/12/10 18:28:18;;;;;;;9.70;6.30;;;4.60;99.90;;;;;;5069012;28;20766;-66
2021/12/10 18:30:46;;;;;;;8.40;5.30;;;5.00;99.90;;;;;;5069043;28;20946;-66
2021/12/10 18:33:12;;;;;;;7.93;5.83;;;4.70;99.90;;;;;;5068551;28;20426;-67
2021/12/10 18:35:47;;;;;;;7.60;5.73;;;4.60;99.90;;;;;;5068352;28;20836;-70
2021/12/10 18:38:15;;;;;;;6.67;4.93;;;4.50;99.90;;;;;;5066045;28;20259;-67
2021/12/10 18:40:46;;;;;;;8.73;5.47;;;4.90;99.90;;;;;;5059877;28;20497;-67
2021/12/10 18:43:16;;;;;;;7.17;5.77;;;4.90;99.90;;;;;;5067981;28;20418;-68
2021/12/10 18:45:56;;;;;;;10.10;6.43;;;4.60;99.90;;;;;;5066509;28;20422;-67
2021/12/10 18:48:25;;;;;;;8.50;6.00;;;4.50;99.90;;;;;;5068068;28;20532;-69
2021/12/10 18:50:58;;;;;;;6.63;5.27;;;4.80;99.90;;;;;;5068092;28;20437;-66
2021/12/10 18:53:30;;;;;;;7.17;5.40;;;4.50;99.90;;;;;;5065922;28;20842;-68
2021/12/10 18:56:01;;;;;;;8.30;5.83;;;4.50;99.90;;;;;;5066099;28;20565;-67
2021/12/10 18:58:31;;;;;;;9.87;6.93;;;4.60;99.90;;;;;;5068070;28;20423;-67
2021/12/10 19:01:20;;;;;;;8.23;5.90;;;4.70;99.90;;;;;;5066425;28;20426;-68
2021/12/10 19:03:57;;;;;;;7.93;5.13;;;4.70;99.90;;;;;;5067829;28;20442;-68
2021/12/10 19:06:22;;;;;;;9.03;6.27;;;4.70;99.90;;;;;;5064947;28;20611;-70
2021/12/10 19:08:56;;;;;;;10.43;6.53;;;4.70;99.90;;;;;;5066999;28;20635;-68
2021/12/10 19:11:26;;;;;;;8.33;6.13;;;4.70;99.90;;;;;;5091468;28;20515;-67
2021/12/10 19:14:16;;;;;;;17.80;8.87;;;4.80;99.90;;;;;;5071535;28;20448;-68
2021/12/10 19:16:56;;;;;;;15.03;9.50;;;4.70;99.90;;;;;;5068044;28;20583;-69
2021/12/10 19:19:29;;;;;;;14.70;9.20;;;4.80;99.90;;;;;;5067756;28;20426;-68
2021/12/10 19:21:59;;;;;;;16.33;9.00;;;4.80;99.90;;;;;;5067568;28;20609;-68
2021/12/10 19:24:38;;;;;;;13.37;9.20;;;4.80;99.90;;;;;;5067399;28;20470;-68
2021/12/10 19:27:40;;;;;;;14.57;9.70;;;4.80;99.90;;;;;;5068033;28;20413;-69
2021/12/10 19:30:15;;;;;;;18.43;10.43;;;4.80;99.90;;;;;;5051733;28;21010;-68
2021/12/10 19:32:45;;;;;;;16.17;10.40;;;4.70;99.90;;;;;;5066939;28;20446;-69
2021/12/10 19:35:23;;;;;;;21.27;11.70;;;4.70;99.90;;;;;;5066323;28;20451;-69
2021/12/10 19:37:53;;;;;;;15.90;10.73;;;4.70;99.90;;;;;;5065036;28;20987;-69
2021/12/10 19:40:21;;;;;;;31.70;13.73;;;4.70;99.90;;;;;;5064412;28;20455;-69
2021/12/10 19:43:11;;;;;;;18.83;10.70;;;4.70;99.90;;;;;;5073860;28;20912;-70
2021/12/10 19:45:44;;;;;;;18.67;10.30;;;4.70;99.90;;;;;;5052712;28;20427;-68
2021/12/10 19:48:17;;;;;;;17.90;10.60;;;4.70;99.90;;;;;;5066635;28;20431;-69
2021/12/10 19:50:52;;;;;;;14.33;8.70;;;4.70;99.90;;;;;;5067378;28;20422;-68
2021/12/10 19:53:32;;;;;;;10.27;6.83;;;4.70;99.90;;;;;;5082392;28;20556;-68
2021/12/10 19:56:13;;;;;;;16.83;8.30;;;4.70;99.90;;;;;;5067436;28;20458;-69
2021/12/10 19:58:50;;;;;;;13.53;8.40;;;4.60;99.90;;;;;;5065457;28;20970;-69
2021/12/10 20:01:31;;;;;;;14.80;8.13;;;4.80;99.90;;;;;;5067271;28;20995;-69
2021/12/10 20:03:58;;;;;;;15.47;8.43;;;4.90;99.90;;;;;;5061715;28;20426;-69
2021/12/10 20:06:40;;;;;;;13.80;8.10;;;4.90;99.90;;;;;;5065549;28;20804;-69
2021/12/10 20:09:30;;;;;;;16.10;9.07;;;4.90;99.90;;;;;;5066588;28;20447;-69
2021/12/10 20:12:02;;;;;;;12.73;8.57;;;5.00;99.90;;;;;;5074779;28;20489;-69
2021/12/10 20:14:36;;;;;;;16.80;8.50;;;4.90;99.90;;;;;;5084358;28;20422;-69
2021/12/10 20:17:07;;;;;;;14.10;8.07;;;4.90;99.90;;;;;;5086374;28;20528;-69
2021/12/10 20:19:38;;;;;;;13.30;7.77;;;5.10;99.90;;;;;;5075064;28;20439;-70
2021/12/10 20:22:18;;;;;;;20.30;9.47;;;5.00;99.90;;;;;;5067396;28;20502;-69
2021/12/10 20:24:59;;;;;;;14.97;9.50;;;5.10;99.90;;;;;;5080896;28;20514;-69
2021/12/10 20:27:34;;;;;;;18.60;10.40;;;5.10;99.90;;;;;;5069346;28;20450;-69
2021/12/10 20:30:21;;;;;;;18.90;12.43;;;5.00;99.90;;;;;;5074689;28;20462;-69
2021/12/10 20:32:59;;;;;;;27.10;11.50;;;5.00;99.90;;;;;;5066864;28;20448;-68
2021/12/10 20:35:29;;;;;;;17.70;9.17;;;4.90;99.90;;;;;;5065705;28;20470;-70
2021/12/10 20:38:02;;;;;;;10.93;7.20;;;5.00;99.90;;;;;;5062944;28;20402;-69
2021/12/10 20:40:45;;;;;;;10.40;6.70;;;4.90;99.90;;;;;;5081937;28;20580;-69
2021/12/10 20:43:19;;;;;;;10.53;6.20;;;5.00;99.90;;;;;;5072996;28;20437;-69
2021/12/10 20:46:02;;;;;;;10.90;5.97;;;5.00;99.90;;;;;;5066275;28;20414;-69
2021/12/10 20:48:30;;;;;;;9.50;6.47;;;5.00;99.90;;;;;;5085437;28;20528;-69
2021/12/10 20:51:04;;;;;;;10.90;7.40;;;5.00;99.90;;;;;;5069945;28;20490;-69
2021/12/10 20:53:43;;;;;;;9.43;6.10;;;5.00;99.90;;;;;;5066969;28;20431;-67
2021/12/10 20:56:14;;;;;;;12.90;6.90;;;4.90;99.90;;;;;;5064651;28;20520;-69
2021/12/10 20:58:44;;;;;;;10.10;7.13;;;5.00;99.90;;;;;;5069749;28;20956;-69
2021/12/10 21:01:14;;;;;;;12.17;6.60;;;5.00;99.90;;;;;;5069649;28;20980;-69
2021/12/10 21:03:55;;;;;;;9.50;6.50;;;4.90;99.90;;;;;;5070359;28;20437;-69
2021/12/10 21:06:29;;;;;;;12.07;7.10;;;4.90;99.90;;;;;;5069430;28;20588;-69
2021/12/10 21:09:12;;;;;;;9.77;6.37;;;4.90;99.90;;;;;;5068291;28;20935;-69